sensor_id;sensor_type;location;lat;lon;timestamp;P1;durP1;ratioP1;P2;durP2;ratioP2
69981;SDS011;57319;56.274;43.980;2024-01-15T00:00:49;1.45;;;1.27;;
69981;SDS011;57319;56.274;43.980;2024-01-15T00:03:14;1.55;;;1.48;;
69981;SDS011;57319;56.274;43.980;2024-01-15T00:05:40;1.50;;;1.50;;
69981;SDS011;57319;56.274;43.980;2024-01-15T00:08:05;1.92;;;1.77;;
69981;SDS011;57319;56.274;43.980;2024-01-15T00:10:32;2.03;;;1.92;;
69981;SDS011;57319;56.274;43.980;2024-01-15T00:12:58;2.80;;;1.85;;
69981;SDS011;57319;56.274;43.980;2024-01-15T00:15:23;4.75;;;1.85;;
69981;SDS011;57319;56.274;43.980;2024-01-15T00:17:49;1.95;;;1.60;;
69981;SDS011;57319;56.274;43.980;2024-01-15T00:20:14;1.92;;;1.50;;
69981;SDS011;57319;56.274;43.980;2024-01-15T00:22:40;2.22;;;2.05;;
69981;SDS011;57319;56.274;43.980;2024-01-15T00:25:05;2.90;;;1.50;;
69981;SDS011;57319;56.274;43.980;2024-01-15T00:27:31;4.28;;;1.92;;
69981;SDS011;57319;56.274;43.980;2024-01-15T00:29:57;1.90;;;1.80;;
69981;SDS011;57319;56.274;43.980;2024-01-15T00:32:22;1.60;;;1.50;;
69981;SDS011;57319;56.274;43.980;2024-01-15T00:34:48;1.83;;;1.45;;
69981;SDS011;57319;56.274;43.980;2024-01-15T00:37:13;4.57;;;1.40;;
69981;SDS011;57319;56.274;43.980;2024-01-15T00:39:39;2.05;;;1.50;;
69981;SDS011;57319;56.274;43.980;2024-01-15T00:42:05;2.10;;;1.92;;
69981;SDS011;57319;56.274;43.980;2024-01-15T00:44:30;1.85;;;1.75;;
69981;SDS011;57319;56.274;43.980;2024-01-15T00:46:56;2.22;;;1.50;;
69981;SDS011;57319;56.274;43.980;2024-01-15T00:49:21;1.40;;;1.40;;
69981;SDS011;57319;56.274;43.980;2024-01-15T00:51:47;4.78;;;2.05;;
69981;SDS011;57319;56.274;43.980;2024-01-15T00:54:12;1.65;;;1.55;;
69981;SDS011;57319;56.274;43.980;2024-01-15T00:56:38;2.40;;;1.55;;
69981;SDS011;57319;56.274;43.980;2024-01-15T00:59:04;1.75;;;1.60;;
69981;SDS011;57319;56.274;43.980;2024-01-15T01:01:29;2.17;;;1.90;;
69981;SDS011;57319;56.274;43.980;2024-01-15T01:03:55;2.08;;;1.98;;
69981;SDS011;57319;56.274;43.980;2024-01-15T01:06:21;2.10;;;1.80;;
69981;SDS011;57319;56.274;43.980;2024-01-15T01:08:46;3.17;;;1.52;;
69981;SDS011;57319;56.274;43.980;2024-01-15T01:11:15;1.70;;;1.60;;
69981;SDS011;57319;56.274;43.980;2024-01-15T01:13:41;1.55;;;1.55;;
69981;SDS011;57319;56.274;43.980;2024-01-15T01:16:07;3.05;;;2.30;;
69981;SDS011;57319;56.274;43.980;2024-01-15T01:18:32;1.30;;;1.20;;
69981;SDS011;57319;56.274;43.980;2024-01-15T01:20:58;2.75;;;2.25;;
69981;SDS011;57319;56.274;43.980;2024-01-15T01:23:23;1.98;;;1.80;;
69981;SDS011;57319;56.274;43.980;2024-01-15T01:25:49;7.10;;;1.50;;
69981;SDS011;57319;56.274;43.980;2024-01-15T01:28:14;5.18;;;2.05;;
69981;SDS011;57319;56.274;43.980;2024-01-15T01:30:40;1.38;;;1.33;;
69981;SDS011;57319;56.274;43.980;2024-01-15T01:33:05;4.15;;;2.13;;
69981;SDS011;57319;56.274;43.980;2024-01-15T01:35:31;1.45;;;1.40;;
69981;SDS011;57319;56.274;43.980;2024-01-15T01:37:56;2.58;;;2.05;;
69981;SDS011;57319;56.274;43.980;2024-01-15T01:40:22;2.45;;;2.00;;
69981;SDS011;57319;56.274;43.980;2024-01-15T01:42:48;2.00;;;1.90;;
69981;SDS011;57319;56.274;43.980;2024-01-15T01:45:14;1.35;;;1.35;;
69981;SDS011;57319;56.274;43.980;2024-01-15T01:47:40;2.70;;;1.52;;
69981;SDS011;57319;56.274;43.980;2024-01-15T01:50:06;4.60;;;1.98;;
69981;SDS011;57319;56.274;43.980;2024-01-15T01:52:32;5.10;;;2.17;;
69981;SDS011;57319;56.274;43.980;2024-01-15T01:54:58;1.75;;;1.65;;
69981;SDS011;57319;56.274;43.980;2024-01-15T01:57:26;2.95;;;2.20;;
69981;SDS011;57319;56.274;43.980;2024-01-15T01:59:52;1.85;;;1.75;;
69981;SDS011;57319;56.274;43.980;2024-01-15T02:02:18;6.55;;;1.55;;
69981;SDS011;57319;56.274;43.980;2024-01-15T02:04:46;2.80;;;1.90;;
69981;SDS011;57319;56.274;43.980;2024-01-15T02:07:13;7.38;;;2.80;;
69981;SDS011;57319;56.274;43.980;2024-01-15T02:09:39;3.72;;;1.50;;
69981;SDS011;57319;56.274;43.980;2024-01-15T02:12:04;1.77;;;1.67;;
69981;SDS011;57319;56.274;43.980;2024-01-15T02:14:30;2.03;;;1.92;;
69981;SDS011;57319;56.274;43.980;2024-01-15T02:16:56;7.15;;;2.13;;
69981;SDS011;57319;56.274;43.980;2024-01-15T02:19:22;1.73;;;1.70;;
69981;SDS011;57319;56.274;43.980;2024-01-15T02:21:47;2.03;;;1.63;;
69981;SDS011;57319;56.274;43.980;2024-01-15T02:24:13;0.93;;;0.93;;
69981;SDS011;57319;56.274;43.980;2024-01-15T02:26:38;4.88;;;1.50;;
69981;SDS011;57319;56.274;43.980;2024-01-15T02:29:07;1.90;;;1.80;;
69981;SDS011;57319;56.274;43.980;2024-01-15T02:31:34;2.95;;;1.85;;
69981;SDS011;57319;56.274;43.980;2024-01-15T02:34:01;6.13;;;2.08;;
69981;SDS011;57319;56.274;43.980;2024-01-15T02:36:27;6.53;;;1.33;;
69981;SDS011;57319;56.274;43.980;2024-01-15T02:38:52;1.85;;;1.75;;
69981;SDS011;57319;56.274;43.980;2024-01-15T02:41:18;2.92;;;2.15;;
69981;SDS011;57319;56.274;43.980;2024-01-15T02:43:43;1.52;;;1.42;;
69981;SDS011;57319;56.274;43.980;2024-01-15T02:46:09;3.45;;;1.95;;
69981;SDS011;57319;56.274;43.980;2024-01-15T02:48:34;1.45;;;1.45;;
69981;SDS011;57319;56.274;43.980;2024-01-15T02:51:00;4.25;;;2.30;;
69981;SDS011;57319;56.274;43.980;2024-01-15T02:53:27;1.70;;;1.70;;
69981;SDS011;57319;56.274;43.980;2024-01-15T02:55:52;2.50;;;1.85;;
69981;SDS011;57319;56.274;43.980;2024-01-15T02:58:18;2.42;;;2.22;;
69981;SDS011;57319;56.274;43.980;2024-01-15T03:00:43;1.33;;;1.33;;
69981;SDS011;57319;56.274;43.980;2024-01-15T03:03:09;1.63;;;1.60;;
69981;SDS011;57319;56.274;43.980;2024-01-15T03:05:34;2.28;;;2.05;;
69981;SDS011;57319;56.274;43.980;2024-01-15T03:08:00;2.28;;;2.17;;
69981;SDS011;57319;56.274;43.980;2024-01-15T03:10:26;2.60;;;1.33;;
69981;SDS011;57319;56.274;43.980;2024-01-15T03:12:51;3.20;;;2.40;;
69981;SDS011;57319;56.274;43.980;2024-01-15T03:15:17;3.15;;;2.42;;
69981;SDS011;57319;56.274;43.980;2024-01-15T03:17:43;2.88;;;2.28;;
69981;SDS011;57319;56.274;43.980;2024-01-15T03:20:09;2.95;;;2.25;;
69981;SDS011;57319;56.274;43.980;2024-01-15T03:22:35;1.38;;;1.38;;
69981;SDS011;57319;56.274;43.980;2024-01-15T03:25:01;1.80;;;1.70;;
69981;SDS011;57319;56.274;43.980;2024-01-15T03:27:26;2.70;;;2.05;;
69981;SDS011;57319;56.274;43.980;2024-01-15T03:29:52;2.30;;;2.05;;
69981;SDS011;57319;56.274;43.980;2024-01-15T03:32:17;2.15;;;2.03;;
69981;SDS011;57319;56.274;43.980;2024-01-15T03:34:44;3.53;;;2.38;;
69981;SDS011;57319;56.274;43.980;2024-01-15T03:37:11;1.58;;;1.42;;
69981;SDS011;57319;56.274;43.980;2024-01-15T03:39:36;3.13;;;2.28;;
69981;SDS011;57319;56.274;43.980;2024-01-15T03:42:02;3.88;;;1.63;;
69981;SDS011;57319;56.274;43.980;2024-01-15T03:44:27;2.22;;;1.75;;
69981;SDS011;57319;56.274;43.980;2024-01-15T03:46:53;1.95;;;1.85;;
69981;SDS011;57319;56.274;43.980;2024-01-15T03:49:19;2.78;;;2.13;;
69981;SDS011;57319;56.274;43.980;2024-01-15T03:51:44;1.42;;;1.40;;
69981;SDS011;57319;56.274;43.980;2024-01-15T03:54:10;4.47;;;2.40;;
69981;SDS011;57319;56.274;43.980;2024-01-15T03:56:36;3.67;;;2.30;;
69981;SDS011;57319;56.274;43.980;2024-01-15T03:59:01;2.53;;;2.33;;
69981;SDS011;57319;56.274;43.980;2024-01-15T04:01:27;1.42;;;1.42;;
69981;SDS011;57319;56.274;43.980;2024-01-15T04:03:52;3.38;;;2.72;;
69981;SDS011;57319;56.274;43.980;2024-01-15T04:06:18;2.70;;;2.50;;
69981;SDS011;57319;56.274;43.980;2024-01-15T04:08:43;2.00;;;1.90;;
69981;SDS011;57319;56.274;43.980;2024-01-15T04:11:09;6.18;;;2.17;;
69981;SDS011;57319;56.274;43.980;2024-01-15T04:13:34;3.40;;;2.78;;
69981;SDS011;57319;56.274;43.980;2024-01-15T04:16:00;6.03;;;2.95;;
69981;SDS011;57319;56.274;43.980;2024-01-15T04:18:26;8.73;;;2.33;;
69981;SDS011;57319;56.274;43.980;2024-01-15T04:20:51;3.92;;;2.58;;
69981;SDS011;57319;56.274;43.980;2024-01-15T04:23:17;2.85;;;2.65;;
69981;SDS011;57319;56.274;43.980;2024-01-15T04:25:42;4.15;;;2.58;;
69981;SDS011;57319;56.274;43.980;2024-01-15T04:28:08;2.72;;;2.00;;
69981;SDS011;57319;56.274;43.980;2024-01-15T04:30:34;3.42;;;2.40;;
69981;SDS011;57319;56.274;43.980;2024-01-15T04:33:00;3.40;;;2.58;;
69981;SDS011;57319;56.274;43.980;2024-01-15T04:35:26;3.50;;;2.42;;
69981;SDS011;57319;56.274;43.980;2024-01-15T04:37:51;8.48;;;3.03;;
69981;SDS011;57319;56.274;43.980;2024-01-15T04:40:17;3.10;;;2.30;;
69981;SDS011;57319;56.274;43.980;2024-01-15T04:42:43;3.30;;;2.55;;
69981;SDS011;57319;56.274;43.980;2024-01-15T04:45:11;2.08;;;2.05;;
69981;SDS011;57319;56.274;43.980;2024-01-15T04:47:36;3.25;;;3.05;;
69981;SDS011;57319;56.274;43.980;2024-01-15T04:50:03;1.30;;;1.30;;
69981;SDS011;57319;56.274;43.980;2024-01-15T04:52:29;1.90;;;1.80;;
69981;SDS011;57319;56.274;43.980;2024-01-15T04:54:55;7.05;;;3.22;;
69981;SDS011;57319;56.274;43.980;2024-01-15T04:57:20;2.00;;;1.90;;
69981;SDS011;57319;56.274;43.980;2024-01-15T04:59:46;2.40;;;2.25;;
69981;SDS011;57319;56.274;43.980;2024-01-15T05:02:12;4.07;;;2.50;;
69981;SDS011;57319;56.274;43.980;2024-01-15T05:04:37;3.42;;;2.63;;
69981;SDS011;57319;56.274;43.980;2024-01-15T05:07:03;2.45;;;2.15;;
69981;SDS011;57319;56.274;43.980;2024-01-15T05:09:28;3.25;;;2.83;;
69981;SDS011;57319;56.274;43.980;2024-01-15T05:11:54;2.67;;;2.50;;
69981;SDS011;57319;56.274;43.980;2024-01-15T05:14:19;2.08;;;1.98;;
69981;SDS011;57319;56.274;43.980;2024-01-15T05:16:48;3.45;;;2.50;;
69981;SDS011;57319;56.274;43.980;2024-01-15T05:19:14;2.47;;;2.15;;
69981;SDS011;57319;56.274;43.980;2024-01-15T05:21:40;2.33;;;2.17;;
69981;SDS011;57319;56.274;43.980;2024-01-15T05:24:06;8.98;;;2.70;;
69981;SDS011;57319;56.274;43.980;2024-01-15T05:26:33;2.90;;;2.70;;
69981;SDS011;57319;56.274;43.980;2024-01-15T05:28:58;9.15;;;2.63;;
69981;SDS011;57319;56.274;43.980;2024-01-15T05:31:24;3.67;;;2.28;;
69981;SDS011;57319;56.274;43.980;2024-01-15T05:33:50;3.05;;;2.83;;
69981;SDS011;57319;56.274;43.980;2024-01-15T05:36:15;2.47;;;2.38;;
69981;SDS011;57319;56.274;43.980;2024-01-15T05:38:41;3.55;;;3.03;;
69981;SDS011;57319;56.274;43.980;2024-01-15T05:41:07;3.83;;;2.80;;
69981;SDS011;57319;56.274;43.980;2024-01-15T05:43:32;5.05;;;3.20;;
69981;SDS011;57319;56.274;43.980;2024-01-15T05:45:58;3.97;;;3.67;;
69981;SDS011;57319;56.274;43.980;2024-01-15T05:48:24;5.97;;;2.47;;
69981;SDS011;57319;56.274;43.980;2024-01-15T05:50:49;4.10;;;3.28;;
69981;SDS011;57319;56.274;43.980;2024-01-15T05:53:15;4.78;;;2.85;;
69981;SDS011;57319;56.274;43.980;2024-01-15T05:55:40;2.70;;;2.55;;
69981;SDS011;57319;56.274;43.980;2024-01-15T05:58:06;3.53;;;3.20;;
69981;SDS011;57319;56.274;43.980;2024-01-15T06:00:32;3.70;;;3.05;;
69981;SDS011;57319;56.274;43.980;2024-01-15T06:03:00;2.70;;;2.38;;
69981;SDS011;57319;56.274;43.980;2024-01-15T06:05:26;4.43;;;3.30;;
69981;SDS011;57319;56.274;43.980;2024-01-15T06:07:51;3.25;;;2.95;;
69981;SDS011;57319;56.274;43.980;2024-01-15T06:10:17;2.45;;;2.35;;
69981;SDS011;57319;56.274;43.980;2024-01-15T06:12:43;2.53;;;2.35;;
69981;SDS011;57319;56.274;43.980;2024-01-15T06:15:09;3.00;;;2.65;;
69981;SDS011;57319;56.274;43.980;2024-01-15T06:17:35;2.25;;;1.90;;
69981;SDS011;57319;56.274;43.980;2024-01-15T06:20:01;2.78;;;2.58;;
69981;SDS011;57319;56.274;43.980;2024-01-15T06:22:28;7.32;;;2.55;;
69981;SDS011;57319;56.274;43.980;2024-01-15T06:24:53;8.27;;;2.53;;
69981;SDS011;57319;56.274;43.980;2024-01-15T06:27:19;2.65;;;2.42;;
69981;SDS011;57319;56.274;43.980;2024-01-15T06:29:45;9.10;;;4.07;;
69981;SDS011;57319;56.274;43.980;2024-01-15T06:32:14;2.90;;;2.70;;
69981;SDS011;57319;56.274;43.980;2024-01-15T06:34:39;9.77;;;3.60;;
69981;SDS011;57319;56.274;43.980;2024-01-15T06:37:05;4.35;;;2.35;;
69981;SDS011;57319;56.274;43.980;2024-01-15T06:39:31;4.65;;;3.47;;
69981;SDS011;57319;56.274;43.980;2024-01-15T06:41:57;3.63;;;3.13;;
69981;SDS011;57319;56.274;43.980;2024-01-15T06:44:22;3.30;;;3.10;;
69981;SDS011;57319;56.274;43.980;2024-01-15T06:46:48;2.67;;;2.47;;
69981;SDS011;57319;56.274;43.980;2024-01-15T06:49:14;6.97;;;3.63;;
69981;SDS011;57319;56.274;43.980;2024-01-15T06:51:39;3.65;;;2.72;;
69981;SDS011;57319;56.274;43.980;2024-01-15T06:54:05;2.95;;;2.63;;
69981;SDS011;57319;56.274;43.980;2024-01-15T06:56:31;5.00;;;3.22;;
69981;SDS011;57319;56.274;43.980;2024-01-15T06:58:57;2.97;;;2.65;;
69981;SDS011;57319;56.274;43.980;2024-01-15T07:01:23;3.08;;;2.60;;
69981;SDS011;57319;56.274;43.980;2024-01-15T07:03:49;4.30;;;3.03;;
69981;SDS011;57319;56.274;43.980;2024-01-15T07:06:14;2.40;;;2.30;;
69981;SDS011;57319;56.274;43.980;2024-01-15T07:08:40;2.53;;;2.42;;
69981;SDS011;57319;56.274;43.980;2024-01-15T07:11:06;3.72;;;3.35;;
69981;SDS011;57319;56.274;43.980;2024-01-15T07:13:32;2.55;;;2.35;;
69981;SDS011;57319;56.274;43.980;2024-01-15T07:15:58;2.95;;;2.75;;
69981;SDS011;57319;56.274;43.980;2024-01-15T07:18:24;3.25;;;3.03;;
69981;SDS011;57319;56.274;43.980;2024-01-15T07:20:50;3.58;;;2.88;;
69981;SDS011;57319;56.274;43.980;2024-01-15T07:23:16;8.23;;;3.42;;
69981;SDS011;57319;56.274;43.980;2024-01-15T07:25:42;3.80;;;3.35;;
69981;SDS011;57319;56.274;43.980;2024-01-15T07:28:08;3.22;;;2.63;;
69981;SDS011;57319;56.274;43.980;2024-01-15T07:30:34;3.17;;;2.72;;
69981;SDS011;57319;56.274;43.980;2024-01-15T07:32:59;4.57;;;3.83;;
69981;SDS011;57319;56.274;43.980;2024-01-15T07:35:25;3.58;;;2.90;;
69981;SDS011;57319;56.274;43.980;2024-01-15T07:37:50;11.90;;;4.55;;
69981;SDS011;57319;56.274;43.980;2024-01-15T07:40:16;3.67;;;3.38;;
69981;SDS011;57319;56.274;43.980;2024-01-15T07:42:42;5.32;;;3.35;;
69981;SDS011;57319;56.274;43.980;2024-01-15T07:45:10;3.30;;;2.97;;
69981;SDS011;57319;56.274;43.980;2024-01-15T07:47:36;5.22;;;3.88;;
69981;SDS011;57319;56.274;43.980;2024-01-15T07:50:02;6.07;;;4.05;;
69981;SDS011;57319;56.274;43.980;2024-01-15T07:52:30;3.63;;;3.25;;
69981;SDS011;57319;56.274;43.980;2024-01-15T07:54:56;4.18;;;3.33;;
69981;SDS011;57319;56.274;43.980;2024-01-15T07:57:21;3.88;;;3.47;;
69981;SDS011;57319;56.274;43.980;2024-01-15T07:59:48;2.38;;;2.28;;
69981;SDS011;57319;56.274;43.980;2024-01-15T08:02:13;3.75;;;3.40;;
69981;SDS011;57319;56.274;43.980;2024-01-15T08:04:39;5.63;;;3.95;;
69981;SDS011;57319;56.274;43.980;2024-01-15T08:07:05;5.40;;;3.45;;
69981;SDS011;57319;56.274;43.980;2024-01-15T08:09:32;10.30;;;3.20;;
69981;SDS011;57319;56.274;43.980;2024-01-15T08:11:57;5.93;;;3.13;;
69981;SDS011;57319;56.274;43.980;2024-01-15T08:14:23;2.95;;;2.75;;
69981;SDS011;57319;56.274;43.980;2024-01-15T08:16:49;3.20;;;2.97;;
69981;SDS011;57319;56.274;43.980;2024-01-15T08:19:14;4.18;;;3.88;;
69981;SDS011;57319;56.274;43.980;2024-01-15T08:21:40;3.85;;;3.55;;
69981;SDS011;57319;56.274;43.980;2024-01-15T08:24:06;4.10;;;3.28;;
69981;SDS011;57319;56.274;43.980;2024-01-15T08:26:31;5.65;;;3.45;;
69981;SDS011;57319;56.274;43.980;2024-01-15T08:28:57;1.98;;;1.88;;
69981;SDS011;57319;56.274;43.980;2024-01-15T08:31:23;11.40;;;4.07;;
69981;SDS011;57319;56.274;43.980;2024-01-15T08:33:49;5.53;;;3.20;;
69981;SDS011;57319;56.274;43.980;2024-01-15T08:36:14;5.15;;;3.38;;
69981;SDS011;57319;56.274;43.980;2024-01-15T08:38:40;4.57;;;3.58;;
69981;SDS011;57319;56.274;43.980;2024-01-15T08:41:06;3.75;;;2.95;;
69981;SDS011;57319;56.274;43.980;2024-01-15T08:43:33;13.13;;;4.22;;
69981;SDS011;57319;56.274;43.980;2024-01-15T08:45:59;4.15;;;3.55;;
69981;SDS011;57319;56.274;43.980;2024-01-15T08:48:25;2.55;;;2.35;;
69981;SDS011;57319;56.274;43.980;2024-01-15T08:50:54;4.82;;;3.22;;
69981;SDS011;57319;56.274;43.980;2024-01-15T08:53:20;3.97;;;2.53;;
69981;SDS011;57319;56.274;43.980;2024-01-15T08:55:46;13.25;;;3.42;;
69981;SDS011;57319;56.274;43.980;2024-01-15T08:58:13;4.68;;;2.92;;
69981;SDS011;57319;56.274;43.980;2024-01-15T09:00:38;6.22;;;3.15;;
69981;SDS011;57319;56.274;43.980;2024-01-15T09:03:04;9.77;;;3.60;;
69981;SDS011;57319;56.274;43.980;2024-01-15T09:05:30;10.23;;;3.22;;
69981;SDS011;57319;56.274;43.980;2024-01-15T09:07:55;3.45;;;2.83;;
69981;SDS011;57319;56.274;43.980;2024-01-15T09:10:21;7.63;;;3.53;;
69981;SDS011;57319;56.274;43.980;2024-01-15T09:12:46;5.57;;;3.92;;
69981;SDS011;57319;56.274;43.980;2024-01-15T09:15:14;4.22;;;3.83;;
69981;SDS011;57319;56.274;43.980;2024-01-15T09:17:40;4.28;;;2.80;;
69981;SDS011;57319;56.274;43.980;2024-01-15T09:20:05;5.38;;;3.78;;
69981;SDS011;57319;56.274;43.980;2024-01-15T09:22:32;10.30;;;3.92;;
69981;SDS011;57319;56.274;43.980;2024-01-15T09:24:58;3.72;;;3.42;;
69981;SDS011;57319;56.274;43.980;2024-01-15T09:27:24;5.90;;;4.13;;
69981;SDS011;57319;56.274;43.980;2024-01-15T09:29:51;4.88;;;3.63;;
69981;SDS011;57319;56.274;43.980;2024-01-15T09:32:18;7.18;;;3.42;;
69981;SDS011;57319;56.274;43.980;2024-01-15T09:34:43;5.03;;;3.55;;
69981;SDS011;57319;56.274;43.980;2024-01-15T09:37:11;10.10;;;4.03;;
69981;SDS011;57319;56.274;43.980;2024-01-15T09:39:37;7.18;;;4.65;;
69981;SDS011;57319;56.274;43.980;2024-01-15T09:42:03;3.42;;;3.17;;
69981;SDS011;57319;56.274;43.980;2024-01-15T09:44:30;3.28;;;3.03;;
69981;SDS011;57319;56.274;43.980;2024-01-15T09:46:56;9.18;;;5.15;;
69981;SDS011;57319;56.274;43.980;2024-01-15T09:49:23;4.40;;;3.83;;
69981;SDS011;57319;56.274;43.980;2024-01-15T09:51:49;4.93;;;3.65;;
69981;SDS011;57319;56.274;43.980;2024-01-15T09:54:15;3.50;;;3.20;;
69981;SDS011;57319;56.274;43.980;2024-01-15T09:56:44;3.45;;;2.85;;
69981;SDS011;57319;56.274;43.980;2024-01-15T09:59:17;3.65;;;3.35;;
69981;SDS011;57319;56.274;43.980;2024-01-15T10:01:44;3.85;;;3.55;;
69981;SDS011;57319;56.274;43.980;2024-01-15T10:04:11;7.32;;;2.80;;
69981;SDS011;57319;56.274;43.980;2024-01-15T10:06:40;2.97;;;2.78;;
69981;SDS011;57319;56.274;43.980;2024-01-15T10:09:14;3.40;;;3.10;;
69981;SDS011;57319;56.274;43.980;2024-01-15T10:11:41;4.10;;;3.55;;
69981;SDS011;57319;56.274;43.980;2024-01-15T10:14:08;3.45;;;3.17;;
69981;SDS011;57319;56.274;43.980;2024-01-15T10:16:42;3.38;;;3.15;;
69981;SDS011;57319;56.274;43.980;2024-01-15T10:19:08;7.63;;;4.57;;
69981;SDS011;57319;56.274;43.980;2024-01-15T10:21:35;4.43;;;3.97;;
69981;SDS011;57319;56.274;43.980;2024-01-15T10:24:02;4.97;;;3.67;;
69981;SDS011;57319;56.274;43.980;2024-01-15T10:26:28;4.00;;;3.60;;
69981;SDS011;57319;56.274;43.980;2024-01-15T10:28:54;3.35;;;3.13;;
69981;SDS011;57319;56.274;43.980;2024-01-15T10:31:20;4.88;;;3.83;;
69981;SDS011;57319;56.274;43.980;2024-01-15T10:33:50;3.88;;;3.40;;
69981;SDS011;57319;56.274;43.980;2024-01-15T10:36:16;5.63;;;3.25;;
69981;SDS011;57319;56.274;43.980;2024-01-15T10:38:45;7.72;;;3.95;;
69981;SDS011;57319;56.274;43.980;2024-01-15T10:41:12;6.35;;;3.58;;
69981;SDS011;57319;56.274;43.980;2024-01-15T10:43:38;4.22;;;3.83;;
69981;SDS011;57319;56.274;43.980;2024-01-15T10:46:06;6.25;;;4.50;;
69981;SDS011;57319;56.274;43.980;2024-01-15T10:48:32;4.90;;;3.53;;
69981;SDS011;57319;56.274;43.980;2024-01-15T10:51:00;6.68;;;3.80;;
69981;SDS011;57319;56.274;43.980;2024-01-15T10:53:25;3.75;;;3.55;;
69981;SDS011;57319;56.274;43.980;2024-01-15T10:55:53;9.68;;;4.78;;
69981;SDS011;57319;56.274;43.980;2024-01-15T10:58:18;5.22;;;4.20;;
69981;SDS011;57319;56.274;43.980;2024-01-15T11:00:45;4.93;;;3.65;;
69981;SDS011;57319;56.274;43.980;2024-01-15T11:03:11;9.13;;;4.00;;
69981;SDS011;57319;56.274;43.980;2024-01-15T11:05:38;3.92;;;2.80;;
69981;SDS011;57319;56.274;43.980;2024-01-15T11:08:07;3.08;;;2.65;;
69981;SDS011;57319;56.274;43.980;2024-01-15T11:10:50;3.72;;;3.10;;
69981;SDS011;57319;56.274;43.980;2024-01-15T11:15:57;5.88;;;3.75;;
69981;SDS011;57319;56.274;43.980;2024-01-15T11:18:30;4.50;;;3.78;;
69981;SDS011;57319;56.274;43.980;2024-01-15T11:23:45;3.30;;;2.80;;
69981;SDS011;57319;56.274;43.980;2024-01-15T11:26:27;3.80;;;3.25;;
69981;SDS011;57319;56.274;43.980;2024-01-15T11:28:54;3.75;;;3.38;;
69981;SDS011;57319;56.274;43.980;2024-01-15T11:31:25;4.80;;;2.53;;
69981;SDS011;57319;56.274;43.980;2024-01-15T11:33:54;3.05;;;2.60;;
69981;SDS011;57319;56.274;43.980;2024-01-15T11:39:43;2.53;;;2.22;;
69981;SDS011;57319;56.274;43.980;2024-01-15T11:42:10;4.40;;;2.42;;
69981;SDS011;57319;56.274;43.980;2024-01-15T11:44:37;7.45;;;4.53;;
69981;SDS011;57319;56.274;43.980;2024-01-15T11:47:03;5.25;;;3.65;;
69981;SDS011;57319;56.274;43.980;2024-01-15T11:49:55;8.95;;;3.42;;
69981;SDS011;57319;56.274;43.980;2024-01-15T11:58:01;3.30;;;3.00;;
69981;SDS011;57319;56.274;43.980;2024-01-15T12:00:28;9.30;;;3.92;;
69981;SDS011;57319;56.274;43.980;2024-01-15T12:02:54;2.97;;;2.55;;
69981;SDS011;57319;56.274;43.980;2024-01-15T12:05:21;2.80;;;2.47;;
69981;SDS011;57319;56.274;43.980;2024-01-15T12:07:48;2.47;;;2.28;;
69981;SDS011;57319;56.274;43.980;2024-01-15T12:10:17;3.03;;;2.60;;
69981;SDS011;57319;56.274;43.980;2024-01-15T12:19:28;2.58;;;2.47;;
69981;SDS011;57319;56.274;43.980;2024-01-15T12:21:54;7.32;;;2.72;;
69981;SDS011;57319;56.274;43.980;2024-01-15T12:24:20;2.88;;;2.35;;
69981;SDS011;57319;56.274;43.980;2024-01-15T12:26:45;3.00;;;2.80;;
69981;SDS011;57319;56.274;43.980;2024-01-15T12:29:11;5.10;;;3.50;;
69981;SDS011;57319;56.274;43.980;2024-01-15T12:31:37;5.40;;;3.08;;
69981;SDS011;57319;56.274;43.980;2024-01-15T12:34:03;4.45;;;3.13;;
69981;SDS011;57319;56.274;43.980;2024-01-15T12:36:32;3.10;;;2.90;;
69981;SDS011;57319;56.274;43.980;2024-01-15T12:39:00;4.60;;;3.72;;
69981;SDS011;57319;56.274;43.980;2024-01-15T12:41:26;3.45;;;3.25;;
69981;SDS011;57319;56.274;43.980;2024-01-15T12:43:51;6.07;;;4.00;;
69981;SDS011;57319;56.274;43.980;2024-01-15T12:46:17;3.10;;;2.80;;
69981;SDS011;57319;56.274;43.980;2024-01-15T12:48:44;4.43;;;3.60;;
69981;SDS011;57319;56.274;43.980;2024-01-15T12:51:13;3.60;;;3.33;;
69981;SDS011;57319;56.274;43.980;2024-01-15T12:53:42;4.07;;;3.35;;
69981;SDS011;57319;56.274;43.980;2024-01-15T12:56:08;4.28;;;3.88;;
69981;SDS011;57319;56.274;43.980;2024-01-15T12:58:34;6.80;;;3.20;;
69981;SDS011;57319;56.274;43.980;2024-01-15T13:00:59;3.75;;;3.45;;
69981;SDS011;57319;56.274;43.980;2024-01-15T13:03:25;8.50;;;3.85;;
69981;SDS011;57319;56.274;43.980;2024-01-15T13:05:51;7.28;;;2.97;;
69981;SDS011;57319;56.274;43.980;2024-01-15T13:08:17;8.77;;;3.05;;
69981;SDS011;57319;56.274;43.980;2024-01-15T13:10:43;8.52;;;5.03;;
69981;SDS011;57319;56.274;43.980;2024-01-15T13:13:09;3.67;;;3.28;;
69981;SDS011;57319;56.274;43.980;2024-01-15T13:15:35;4.32;;;2.72;;
69981;SDS011;57319;56.274;43.980;2024-01-15T13:18:00;5.97;;;2.78;;
69981;SDS011;57319;56.274;43.980;2024-01-15T13:20:26;9.20;;;3.15;;
69981;SDS011;57319;56.274;43.980;2024-01-15T13:22:52;2.60;;;2.40;;
69981;SDS011;57319;56.274;43.980;2024-01-15T13:25:17;2.80;;;2.35;;
69981;SDS011;57319;56.274;43.980;2024-01-15T13:27:44;3.00;;;2.80;;
69981;SDS011;57319;56.274;43.980;2024-01-15T13:30:10;5.07;;;3.35;;
69981;SDS011;57319;56.274;43.980;2024-01-15T13:32:36;4.63;;;3.40;;
69981;SDS011;57319;56.274;43.980;2024-01-15T13:35:02;5.35;;;4.03;;
69981;SDS011;57319;56.274;43.980;2024-01-15T13:37:30;10.23;;;3.80;;
69981;SDS011;57319;56.274;43.980;2024-01-15T13:39:56;3.40;;;3.15;;
69981;SDS011;57319;56.274;43.980;2024-01-15T13:42:21;3.65;;;3.35;;
69981;SDS011;57319;56.274;43.980;2024-01-15T13:44:47;4.13;;;3.72;;
69981;SDS011;57319;56.274;43.980;2024-01-15T13:47:13;6.30;;;3.90;;
69981;SDS011;57319;56.274;43.980;2024-01-15T13:49:38;3.25;;;2.97;;
69981;SDS011;57319;56.274;43.980;2024-01-15T13:52:04;3.00;;;2.80;;
69981;SDS011;57319;56.274;43.980;2024-01-15T13:54:30;6.70;;;3.38;;
69981;SDS011;57319;56.274;43.980;2024-01-15T13:56:56;3.83;;;3.45;;
69981;SDS011;57319;56.274;43.980;2024-01-15T13:59:21;3.53;;;3.10;;
69981;SDS011;57319;56.274;43.980;2024-01-15T14:01:48;3.22;;;2.92;;
69981;SDS011;57319;56.274;43.980;2024-01-15T14:04:13;10.23;;;3.83;;
69981;SDS011;57319;56.274;43.980;2024-01-15T14:06:39;4.60;;;3.90;;
69981;SDS011;57319;56.274;43.980;2024-01-15T14:09:08;7.72;;;3.75;;
69981;SDS011;57319;56.274;43.980;2024-01-15T14:11:36;4.20;;;3.60;;
69981;SDS011;57319;56.274;43.980;2024-01-15T14:14:03;4.60;;;3.67;;
69981;SDS011;57319;56.274;43.980;2024-01-15T14:16:28;3.92;;;3.45;;
69981;SDS011;57319;56.274;43.980;2024-01-15T14:18:54;5.47;;;3.22;;
69981;SDS011;57319;56.274;43.980;2024-01-15T14:21:19;4.20;;;3.28;;
69981;SDS011;57319;56.274;43.980;2024-01-15T14:23:45;5.22;;;3.92;;
69981;SDS011;57319;56.274;43.980;2024-01-15T14:26:10;3.90;;;3.50;;
69981;SDS011;57319;56.274;43.980;2024-01-15T14:28:36;5.68;;;3.70;;
69981;SDS011;57319;56.274;43.980;2024-01-15T14:31:01;4.43;;;3.10;;
69981;SDS011;57319;56.274;43.980;2024-01-15T14:33:28;3.20;;;2.97;;
69981;SDS011;57319;56.274;43.980;2024-01-15T14:35:53;5.28;;;3.60;;
69981;SDS011;57319;56.274;43.980;2024-01-15T14:38:19;3.53;;;2.95;;
69981;SDS011;57319;56.274;43.980;2024-01-15T14:40:44;3.25;;;2.88;;
69981;SDS011;57319;56.274;43.980;2024-01-15T14:43:10;6.28;;;4.43;;
69981;SDS011;57319;56.274;43.980;2024-01-15T14:45:36;10.73;;;4.07;;
69981;SDS011;57319;56.274;43.980;2024-01-15T14:48:01;3.00;;;2.83;;